Time;durP1;ratioP1;P1;durP2;ratioP2;P2;SDS_P1;SDS_P2;PMS_P1;PMS_P2;Temp;Humidity;BMP_temperature;BMP_pressure;BME280_temperature;BME280_humidity;BME280_pressure;Samples;Min_cycle;Max_cycle;Signal;HPM_P1;HPM_P2
2021/03/18 00:01:14;;;;;;;;;;;;;;;2.87;64.84;98517.20;1803220;79;20411;-67
2021/03/18 00:03:44;;;;;;;;;;;;;;;2.86;65.02;98518.63;1810104;78;20152;-67
2021/03/18 00:06:12;;;;;;;;;;;;;;;2.85;65.11;98519.12;1809471;78;20327;-67
2021/03/18 00:08:41;;;;;;;;;;;;;;;2.84;65.21;98521.39;1816591;78;20169;-68
2021/03/18 00:11:11;;;;;;;;;;;;;;;2.83;65.29;98517.11;1815833;78;20144;-67
2021/03/18 00:13:39;;;;;;;;;;;;;;;2.84;65.25;98521.39;1807584;78;20427;-68
2021/03/18 00:16:06;;;;;;;;;;;;;;;2.82;65.30;98521.97;1811036;78;20243;-67
2021/03/18 00:18:49;;;;;;;;;;;;;;;2.82;65.50;98525.89;1815369;78;20141;-68
2021/03/18 00:21:17;;;;;;;;;;;;;;;2.83;65.57;98518.91;1816295;78;20160;-67
2021/03/18 00:23:47;;;;;;;;;;;;;;;2.82;65.66;98518.54;1807630;78;20153;-68
2021/03/18 00:26:16;;;;;;;;;;;;;;;2.81;65.60;98515.59;1808436;78;20439;-67
2021/03/18 00:28:45;;;;;;;;;;;;;;;2.80;65.65;98521.77;1813445;78;20148;-67
2021/03/18 00:31:13;;;;;;;;;;;;;;;2.79;65.69;98514.90;1813390;78;20157;-67
2021/03/18 00:33:40;;;;;;;;;;;;;;;2.78;65.63;98515.36;1786631;78;20121;-67
2021/03/18 00:36:07;;;;;;;;;;;;;;;2.78;65.68;98522.37;1808644;78;20539;-68
2021/03/18 00:38:35;;;;;;;;;;;;;;;2.75;65.90;98513.02;1813019;78;20136;-68
2021/03/18 00:41:05;;;;;;;;;;;;;;;2.76;65.94;98515.14;1783167;78;20198;-68
2021/03/18 00:43:33;;;;;;;;;;;;;;;2.76;65.85;98513.35;1807618;78;20279;-68
2021/03/18 00:46:00;;;;;;;;;;;;;;;2.74;65.87;98510.53;1817100;78;20259;-67
2021/03/18 00:48:29;;;;;;;;;;;;;;;2.72;65.87;98516.69;1809864;78;20664;-68
2021/03/18 00:50:59;;;;;;;;;;;;;;;2.70;66.01;98517.30;1807686;78;20137;-67
2021/03/18 00:53:31;;;;;;;;;;;;;;;2.70;65.88;98511.25;1824043;78;20137;-68
2021/03/18 00:55:58;;;;;;;;;;;;;;;2.67;65.85;98512.31;1824098;78;20121;-67
2021/03/18 00:58:25;;;;;;;;;;;;;;;2.70;65.83;98515.17;1810831;78;20183;-68
2021/03/18 01:00:56;;;;;;;;;;;;;;;2.71;65.64;98520.73;1782569;79;20323;-67
2021/03/18 01:03:25;;;;;;;;;;;;;;;2.69;65.77;98514.80;1816230;78;20511;-67
2021/03/18 01:06:05;;;;;;;;;;;;;;;2.68;65.77;98513.98;1783273;79;20177;-67
2021/03/18 01:08:34;;;;;;;;;;;;;;;2.67;65.86;98517.53;1806521;78;20161;-67
2021/03/18 01:11:06;;;;;;;;;;;;;;;2.64;65.96;98513.08;1803073;78;20224;-68
2021/03/18 01:13:34;;;;;;;;;;;;;;;2.64;65.94;98509.98;1805709;78;20148;-68
2021/03/18 01:16:05;;;;;;;;;;;;;;;2.64;65.77;98510.47;1815198;78;20169;-68
2021/03/18 01:18:41;;;;;;;;;;;;;;;2.63;65.68;98509.61;1787984;79;20169;-67
2021/03/18 01:21:08;;;;;;;;;;;;;;;2.64;65.51;98514.37;1808805;78;20129;-67
2021/03/18 01:23:36;;;;;;;;;;;;;;;2.62;65.83;98509.73;1783755;79;20157;-67
2021/03/18 01:26:04;;;;;;;;;;;;;;;2.60;65.68;98501.20;1808806;78;20149;-67
2021/03/18 01:28:32;;;;;;;;;;;;;;;2.59;65.69;98506.09;1824171;78;20181;-67
2021/03/18 01:31:01;;;;;;;;;;;;;;;2.57;65.80;98506.21;1813951;78;20145;-67
2021/03/18 01:33:30;;;;;;;;;;;;;;;2.58;65.57;98504.42;1810607;78;20279;-67
2021/03/18 01:36:00;;;;;;;;;;;;;;;2.59;65.53;98500.88;1808930;78;20148;-67
2021/03/18 01:38:28;;;;;;;;;;;;;;;2.58;65.53;98501.36;1782261;78;20501;-68
2021/03/18 01:40:56;;;;;;;;;;;;;;;2.58;65.69;98501.36;1810694;78;20124;-67
2021/03/18 01:43:26;;;;;;;;;;;;;;;2.59;65.66;98502.17;1820370;78;20224;-67
2021/03/18 01:45:54;;;;;;;;;;;;;;;2.59;65.68;98504.30;1814395;78;20124;-67
2021/03/18 01:48:21;;;;;;;;;;;;;;;2.60;65.34;98498.59;1816774;78;20511;-67
2021/03/18 01:50:50;;;;;;;;;;;;;;;2.61;65.05;98501.08;1807644;78;20156;-68
2021/03/18 01:53:21;;;;;;;;;;;;;;;2.62;64.65;98495.38;1816897;78;20157;-67
2021/03/18 01:55:50;;;;;;;;;;;;;;;2.61;64.65;98495.86;1783735;78;20153;-68
2021/03/18 01:58:17;;;;;;;;;;;;;;;2.61;64.66;98495.86;1809174;78;20415;-67
2021/03/18 02:00:46;;;;;;;;;;;;;;;2.61;64.45;98493.73;1758653;79;20136;-67
2021/03/18 02:03:14;;;;;;;;;;;;;;;2.62;64.44;98498.84;1827849;78;20141;-67
2021/03/18 02:05:42;;;;;;;;;;;;;;;2.63;64.39;98501.78;1806964;79;20526;-67
2021/03/18 02:08:11;;;;;;;;;;;;;;;2.63;64.29;98504.88;1808234;79;20145;-68
2021/03/18 02:10:39;;;;;;;;;;;;;;;2.62;64.36;98497.98;1808344;79;20152;-67
2021/03/18 02:13:08;;;;;;;;;;;;;;;2.62;64.39;98497.98;1817184;79;20148;-67
2021/03/18 02:15:43;;;;;;;;;;;;;;;2.61;64.31;98504.18;1807741;79;20153;-67
2021/03/18 02:18:26;;;;;;;;;;;;;;;2.61;64.09;98497.66;1790091;79;20126;-67
2021/03/18 02:21:06;;;;;;;;;;;;;;;2.61;64.23;98500.27;1808996;79;20227;-67
2021/03/18 02:24:13;;;;;;;;;;;;;;;2.61;64.29;98504.18;1787659;79;20154;-67
2021/03/18 02:27:02;;;;;;;;;;;;;;;2.58;64.11;98500.51;1783088;79;20271;-67
2021/03/18 02:30:07;;;;;;;;;;;;;;;2.56;64.08;98505.03;1807635;79;20424;-67
2021/03/18 02:33:02;;;;;;;;;;;;;;;2.53;64.05;98503.51;1807676;79;20207;-67
2021/03/18 02:35:36;;;;;;;;;;;;;;;2.51;64.14;98509.33;1814431;78;20451;-67
2021/03/18 02:38:07;;;;;;;;;;;;;;;2.49;64.40;98509.94;1811088;78;20127;-67
2021/03/18 02:40:37;;;;;;;;;;;;;;;2.48;64.47;98509.09;1807763;78;20428;-68
2021/03/18 02:43:07;;;;;;;;;;;;;;;2.48;64.59;98511.70;1809946;78;20125;-67
2021/03/18 02:45:38;;;;;;;;;;;;;;;2.48;64.83;98504.35;1813441;78;20236;-68
2021/03/18 02:48:07;;;;;;;;;;;;;;;2.46;64.92;98507.56;1809281;78;20216;-68
2021/03/18 02:50:37;;;;;;;;;;;;;;;2.43;65.07;98509.11;1787776;79;20228;-67
2021/03/18 02:53:05;;;;;;;;;;;;;;;2.40;65.20;98510.20;1808846;78;20396;-68
2021/03/18 02:55:33;;;;;;;;;;;;;;;2.39;65.12;98512.45;1809693;78;20232;-67
2021/03/18 02:58:00;;;;;;;;;;;;;;;2.37;65.16;98522.66;1827854;78;20503;-68
2021/03/18 03:00:28;;;;;;;;;;;;;;;2.36;65.41;98517.93;1782792;78;20153;-67
2021/03/18 03:02:57;;;;;;;;;;;;;;;2.36;65.51;98524.91;1785243;78;20513;-67
2021/03/18 03:05:25;;;;;;;;;;;;;;;2.34;65.67;98517.23;1810294;78;20125;-68
2021/03/18 03:07:53;;;;;;;;;;;;;;;2.33;65.79;98523.39;1758212;79;20151;-67
2021/03/18 03:10:21;;;;;;;;;;;;;;;2.31;66.16;98521.38;1809636;78;20228;-68
2021/03/18 03:12:49;;;;;;;;;;;;;;;2.27;66.45;98522.59;1813296;78;20125;-67
2021/03/18 03:15:17;;;;;;;;;;;;;;;2.23;66.54;98529.01;1807706;78;20125;-67
2021/03/18 03:17:46;;;;;;;;;;;;;;;2.19;66.72;98522.36;1820863;78;20149;-67
2021/03/18 03:20:15;;;;;;;;;;;;;;;2.15;66.76;98525.69;1819756;78;20128;-67
2021/03/18 03:22:43;;;;;;;;;;;;;;;2.12;67.07;98530.68;1805554;78;20229;-67
2021/03/18 03:25:13;;;;;;;;;;;;;;;2.09;67.29;98524.88;1814126;78;20136;-68
2021/03/18 03:27:43;;;;;;;;;;;;;;;2.05;67.50;98532.11;1812169;78;20121;-67
2021/03/18 03:30:12;;;;;;;;;;;;;;;2.02;67.68;98527.61;1800979;79;20212;-67
2021/03/18 03:32:40;;;;;;;;;;;;;;;2.00;67.90;98527.77;1817006;78;20495;-68
2021/03/18 03:35:09;;;;;;;;;;;;;;;1.97;68.08;98534.52;1811361;78;20235;-67
2021/03/18 03:37:37;;;;;;;;;;;;;;;1.93;68.06;98535.72;1809080;78;20137;-67
2021/03/18 03:40:08;;;;;;;;;;;;;;;1.91;68.23;98537.62;1808999;78;20124;-67
2021/03/18 03:42:36;;;;;;;;;;;;;;;1.88;68.31;98543.06;1816701;78;20523;-67
2021/03/18 03:45:07;;;;;;;;;;;;;;;1.83;68.52;98537.37;1813471;78;20403;-67
2021/03/18 03:47:35;;;;;;;;;;;;;;;1.83;68.68;98545.19;1825161;78;20427;-68
2021/03/18 03:50:05;;;;;;;;;;;;;;;1.79;68.86;98544.60;1812535;78;20223;-67
2021/03/18 03:52:57;;;;;;;;;;;;;;;1.75;69.20;98545.31;1813450;78;20165;-68
2021/03/18 03:55:31;;;;;;;;;;;;;;;1.74;69.47;98548.06;1813970;78;20224;-66
2021/03/18 03:58:00;;;;;;;;;;;;;;;1.71;69.94;98545.69;1817748;78;20121;-66
2021/03/18 04:00:28;;;;;;;;;;;;;;;1.68;70.40;98540.25;1812724;78;20141;-66
2021/03/18 04:03:00;;;;;;;;;;;;;;;1.70;70.82;98550.53;1807632;78;20137;-66
2021/03/18 04:05:29;;;;;;;;;;;;;;;1.68;70.94;98549.38;1807286;78;20412;-66
2021/03/18 04:08:00;;;;;;;;;;;;;;;1.66;71.36;98549.94;1807512;79;20149;-67
2021/03/18 04:10:30;;;;;;;;;;;;;;;1.69;71.64;98561.44;1806463;78;20137;-67
2021/03/18 04:12:58;;;;;;;;;;;;;;;1.74;71.98;98555.41;1807720;78;20133;-66
2021/03/18 04:15:26;;;;;;;;;;;;;;;1.80;72.43;98563.70;1812785;78;20486;-66
2021/03/18 04:17:53;;;;;;;;;;;;;;;1.83;72.59;98561.66;1784285;79;20162;-66
2021/03/18 04:20:22;;;;;;;;;;;;;;;1.85;72.80;98564.15;1784252;78;20320;-66
2021/03/18 04:22:52;;;;;;;;;;;;;;;1.85;72.91;98569.36;1807480;78;20144;-66
2021/03/18 04:25:21;;;;;;;;;;;;;;;1.85;73.20;98567.61;1807678;78;20140;-66
2021/03/18 04:27:50;;;;;;;;;;;;;;;1.84;73.48;98566.42;1809336;79;20497;-66
2021/03/18 04:30:19;;;;;;;;;;;;;;;1.85;73.65;98562.84;1787175;79;20252;-66
2021/03/18 04:32:47;;;;;;;;;;;;;;;1.85;73.75;98561.54;1809532;78;20487;-66
2021/03/18 04:35:16;;;;;;;;;;;;;;;1.86;74.07;98563.22;1816137;78;20121;-66
2021/03/18 04:37:44;;;;;;;;;;;;;;;1.87;74.29;98563.09;1807641;79;20144;-67
2021/03/18 04:40:13;;;;;;;;;;;;;;;1.88;74.61;98569.13;1781287;78;20504;-66
2021/03/18 04:42:41;;;;;;;;;;;;;;;1.89;74.78;98569.47;1817042;78;20257;-66
2021/03/18 04:45:10;;;;;;;;;;;;;;;1.94;75.12;98570.80;1816668;78;20393;-66
2021/03/18 04:47:39;;;;;;;;;;;;;;;1.99;75.45;98576.94;1807323;78;20427;-66
2021/03/18 04:50:11;;;;;;;;;;;;;;;2.03;75.72;98574.44;1787196;79;20141;-66
2021/03/18 04:52:40;;;;;;;;;;;;;;;2.08;76.03;98580.12;1806189;78;20137;-66
2021/03/18 04:55:09;;;;;;;;;;;;;;;2.16;76.27;98580.00;1817437;78;20424;-66
2021/03/18 04:57:39;;;;;;;;;;;;;;;2.20;76.33;98586.63;1807929;78;20163;-66
2021/03/18 05:00:08;;;;;;;;;;;;;;;2.24;76.52;98585.44;1807802;78;20429;-66
2021/03/18 05:02:35;;;;;;;;;;;;;;;2.28;76.67;98585.08;1807898;78;20232;-66
2021/03/18 05:05:07;;;;;;;;;;;;;;;2.33;76.68;98587.31;1785959;78;20140;-67
2021/03/18 05:07:35;;;;;;;;;;;;;;;2.39;76.67;98588.60;1815035;78;20421;-66
2021/03/18 05:10:05;;;;;;;;;;;;;;;2.41;76.66;98590.13;1806426;78;20132;-66
2021/03/18 05:12:32;;;;;;;;;;;;;;;2.46;76.62;98594.99;1807119;78;20180;-66
2021/03/18 05:15:01;;;;;;;;;;;;;;;2.50;76.53;98587.27;1817410;78;20401;-67
2021/03/18 05:17:28;;;;;;;;;;;;;;;2.56;76.46;98588.55;1785776;79;20169;-67
2021/03/18 05:19:56;;;;;;;;;;;;;;;2.60;76.27;98595.17;1816421;78;20128;-66
2021/03/18 05:22:24;;;;;;;;;;;;;;;2.67;76.12;98600.26;1817487;78;20232;-67
2021/03/18 05:24:52;;;;;;;;;;;;;;;2.77;75.72;98597.72;1816332;78;20157;-67
2021/03/18 05:27:19;;;;;;;;;;;;;;;2.94;75.33;98597.64;1819376;78;20141;-67
2021/03/18 05:29:47;;;;;;;;;;;;;;;3.10;74.78;98604.13;1805991;78;20145;-67
2021/03/18 05:32:14;;;;;;;;;;;;;;;3.29;74.01;98604.72;1809711;78;20153;-66
2021/03/18 05:34:42;;;;;;;;;;;;;;;3.52;73.28;98608.95;1810106;78;20175;-66
2021/03/18 05:37:10;;;;;;;;;;;;;;;3.68;72.30;98605.40;1823155;78;20136;-66
2021/03/18 05:39:38;;;;;;;;;;;;;;;3.88;71.58;98610.24;1809541;78;20630;-66
2021/03/18 05:42:06;;;;;;;;;;;;;;;4.03;70.49;98611.53;1812931;78;20176;-66
2021/03/18 05:44:34;;;;;;;;;;;;;;;4.14;69.75;98614.53;1816953;78;20132;-66
2021/03/18 05:47:02;;;;;;;;;;;;;;;4.28;68.98;98619.87;1807162;78;20235;-66
2021/03/18 05:49:30;;;;;;;;;;;;;;;4.34;68.54;98623.73;1807550;78;20431;-66
2021/03/18 05:51:58;;;;;;;;;;;;;;;4.36;68.24;98625.28;1810745;78;20127;-67
2021/03/18 05:54:26;;;;;;;;;;;;;;;4.39;68.14;98630.22;1787474;78;20157;-67
2021/03/18 05:56:53;;;;;;;;;;;;;;;4.42;68.01;98624.73;1813898;78;20125;-67
2021/03/18 05:59:22;;;;;;;;;;;;;;;4.45;67.85;98621.86;1807630;78;20132;-67
2021/03/18 06:01:49;;;;;;;;;;;;;;;4.48;67.56;98630.73;1783927;78;20149;-67
2021/03/18 06:04:17;;;;;;;;;;;;;;;4.50;67.54;98638.45;1810456;78;20436;-67
2021/03/18 06:06:46;;;;;;;;;;;;;;;4.51;67.31;98630.11;1823955;78;20164;-66
2021/03/18 06:09:15;;;;;;;;;;;;;;;4.54;67.20;98636.39;1814656;78;20145;-67
2021/03/18 06:11:43;;;;;;;;;;;;;;;4.59;67.10;98637.64;1814873;78;20251;-67
2021/03/18 06:14:10;;;;;;;;;;;;;;;4.66;66.94;98645.80;1806658;78;20141;-67
2021/03/18 06:16:42;;;;;;;;;;;;;;;4.70;66.56;98636.70;1809932;78;20488;-67
2021/03/18 06:19:09;;;;;;;;;;;;;;;4.74;66.51;98642.50;1823604;78;20137;-67
2021/03/18 06:21:52;;;;;;;;;;;;;;;4.75;66.29;98647.61;1810446;78;20148;-67
2021/03/18 06:24:21;;;;;;;;;;;;;;;4.73;66.19;98648.69;1820089;78;20160;-67
2021/03/18 06:26:48;;;;;;;;;;;;;;;4.72;66.13;98654.42;1805456;78;20160;-66
2021/03/18 06:29:34;;;;;;;;;;;;;;;4.76;66.12;98652.36;1810528;78;20156;-67
2021/03/18 06:32:15;;;;;;;;;;;;;;;4.83;66.31;98652.98;1784084;78;20192;-68
2021/03/18 06:34:54;;;;;;;;;;;;;;;4.93;66.10;98653.47;1816264;78;20152;-67
2021/03/18 06:37:34;;;;;;;;;;;;;;;5.01;65.99;98656.22;1818874;78;20429;-67
2021/03/18 06:40:20;;;;;;;;;;;;;;;5.11;65.68;98654.45;1816116;78;20168;-67
2021/03/18 06:42:57;;;;;;;;;;;;;;;5.24;65.13;98656.30;1816666;78;20227;-68
2021/03/18 06:45:35;;;;;;;;;;;;;;;5.47;64.65;98652.06;1815389;78;20240;-68
2021/03/18 06:48:08;;;;;;;;;;;;;;;5.81;63.61;98647.64;1782057;79;20144;-67
2021/03/18 06:50:46;;;;;;;;;;;;;;;6.17;62.86;98651.28;1817945;77;20158;-70
2021/03/18 06:53:28;;;;;;;;;;;;;;;6.43;61.65;98647.13;1832144;77;20240;-70
2021/03/18 06:55:52;;;;;;;;;;;;;;;6.59;60.59;98649.95;1817481;78;20153;-68
2021/03/18 06:58:21;;;;;;;;;;;;;;;6.71;59.83;98651.37;1828779;77;20135;-69
2021/03/18 07:00:51;;;;;;;;;;;;;;;6.90;59.41;98657.47;1828346;77;20138;-69
2021/03/18 07:03:33;;;;;;;;;;;;;;;7.22;58.79;98653.48;1832512;77;20228;-69
2021/03/18 07:06:03;;;;;;;;;;;;;;;7.56;57.41;98649.66;1796892;78;20136;-68
2021/03/18 07:08:37;;;;;;;;;;;;;;;7.84;56.28;98652.97;1829832;77;20157;-70
2021/03/18 07:11:18;;;;;;;;;;;;;;;8.00;55.50;98659.30;1811650;77;20131;-71
2021/03/18 07:13:47;;;;;;;;;;;;;;;8.19;55.06;98660.87;1811873;78;20235;-68
2021/03/18 07:16:15;;;;;;;;;;;;;;;8.45;54.29;98662.16;1791482;79;20161;-71
2021/03/18 07:18:55;;;;;;;;;;;;;;;8.69;53.36;98654.83;1812348;78;20175;-69
2021/03/18 07:21:40;;;;;;;;;;;;;;;9.02;52.47;98655.72;1828999;77;20158;-69
2021/03/18 07:24:28;;;;;;;;;;;;;;;9.42;51.21;98657.22;1837520;77;20143;-69
2021/03/18 07:26:57;;;;;;;;;;;;;;;9.70;50.17;98660.33;1830055;77;20135;-69
2021/03/18 07:29:29;;;;;;;;;;;;;;;9.86;49.58;98656.84;1812934;78;20143;-70
2021/03/18 07:31:57;;;;;;;;;;;;;;;10.08;49.11;98651.31;1810038;78;20232;-70
2021/03/18 07:34:25;;;;;;;;;;;;;;;10.32;48.47;98648.30;1820601;78;20121;-70
2021/03/18 07:36:57;;;;;;;;;;;;;;;10.69;47.54;98653.73;1817876;78;20160;-70
2021/03/18 07:39:25;;;;;;;;;;;;;;;11.11;46.33;98655.64;1806307;78;20157;-71
2021/03/18 07:41:53;;;;;;;;;;;;;;;11.48;45.69;98658.48;1807694;78;20188;-69
2021/03/18 07:44:21;;;;;;;;;;;;;;;11.97;44.66;98659.36;1797439;78;20133;-73
2021/03/18 07:46:49;;;;;;;;;;;;;;;12.44;42.84;98652.88;1821001;78;20444;-69
2021/03/18 07:49:20;;;;;;;;;;;;;;;12.79;41.35;98655.72;1802469;78;20507;-69
2021/03/18 07:51:51;;;;;;;;;;;;;;;13.23;40.86;98660.58;1821053;78;20138;-68
2021/03/18 07:54:21;;;;;;;;;;;;;;;13.74;40.12;98659.08;1820886;77;20134;-73
2021/03/18 07:56:51;;;;;;;;;;;;;;;14.16;39.05;98664.78;1803636;78;20490;-73
2021/03/18 07:59:24;;;;;;;;;;;;;;;14.45;37.98;98655.41;1816254;78;20597;-70
2021/03/18 08:01:51;;;;;;;;;;;;;;;14.53;37.73;98652.56;1813708;78;20254;-71
2021/03/18 08:04:24;;;;;;;;;;;;;;;14.65;37.31;98652.86;1811154;77;20155;-70
2021/03/18 08:06:52;;;;;;;;;;;;;;;14.80;36.64;98654.85;1769747;79;20227;-69
2021/03/18 08:09:30;;;;;;;;;;;;;;;14.78;36.80;98658.75;1797532;78;20287;-73
2021/03/18 08:11:57;;;;;;;;;;;;;;;14.69;36.65;98656.24;1826805;78;20135;-72
2021/03/18 08:14:24;;;;;;;;;;;;;;;14.64;36.43;98649.36;1827802;78;20139;-72
2021/03/18 08:16:53;;;;;;;;;;;;;;;14.48;36.03;98655.02;1771477;78;20197;-71
2021/03/18 08:19:21;;;;;;;;;;;;;;;14.23;36.34;98654.16;1828340;78;20218;-72
2021/03/18 08:21:50;;;;;;;;;;;;;;;14.13;36.77;98667.00;1828933;78;20186;-70
2021/03/18 08:24:27;;;;;;;;;;;;;;;13.98;36.94;98663.12;1826882;78;20229;-71
2021/03/18 08:27:00;;;;;;;;;;;;;;;13.77;37.13;98663.50;1827295;78;20146;-72
2021/03/18 08:29:41;;;;;;;;;;;;;;;13.58;37.26;98660.20;1828630;78;20753;-70
2021/03/18 08:32:29;;;;;;;;;;;;;;;13.28;37.67;98667.44;1828510;78;20439;-72
2021/03/18 08:35:00;;;;;;;;;;;;;;;12.98;37.97;98659.11;1827957;78;20139;-70
2021/03/18 08:37:34;;;;;;;;;;;;;;;12.61;38.57;98663.59;1800078;78;20174;-71
2021/03/18 08:40:05;;;;;;;;;;;;;;;12.23;38.88;98669.03;1829132;78;20164;-72
2021/03/18 08:42:35;;;;;;;;;;;;;;;11.93;39.19;98670.02;1828349;78;20172;-71
2021/03/18 08:45:07;;;;;;;;;;;;;;;11.63;39.50;98665.95;1827845;78;20167;-70
2021/03/18 08:47:44;;;;;;;;;;;;;;;11.29;40.08;98667.75;1796145;78;20139;-71
2021/03/18 08:50:26;;;;;;;;;;;;;;;10.94;40.66;98664.19;1801328;78;20229;-72
2021/03/18 08:52:55;;;;;;;;;;;;;;;10.69;40.81;98667.46;1828514;78;20158;-71
2021/03/18 08:55:43;;;;;;;;;;;;;;;10.47;40.99;98669.05;1829147;78;20497;-72
2021/03/18 08:58:11;;;;;;;;;;;;;;;10.28;41.36;98680.31;1828537;78;20139;-71
2021/03/18 09:00:41;;;;;;;;;;;;;;;10.14;41.59;98685.48;1827702;78;20304;-73
2021/03/18 09:03:09;;;;;;;;;;;;;;;10.04;41.52;98678.59;1816108;78;20145;-69
2021/03/18 09:05:38;;;;;;;;;;;;;;;9.99;41.89;98681.42;1766585;77;20221;-72
2021/03/18 09:08:07;;;;;;;;;;;;;;;9.97;41.65;98676.77;1833134;77;20463;-69
2021/03/18 09:10:36;;;;;;;;;;;;;;;10.13;41.29;98676.73;1810888;78;20176;-76
2021/03/18 09:13:13;;;;;;;;;;;;;;;10.44;41.00;98670.23;1823664;78;20131;-73
2021/03/18 09:15:43;;;;;;;;;;;;;;;10.89;39.92;98666.53;1832879;77;20168;-66
2021/03/18 09:18:16;;;;;;;;;;;;;;;11.39;38.89;98665.66;1784952;78;20658;-70
2021/03/18 09:21:00;;;;;;;;;;;;;;;11.91;38.16;98666.72;1759621;80;20199;-73
2021/03/18 09:23:29;;;;;;;;;;;;;;;12.74;36.86;98664.25;1771057;80;20492;-73
2021/03/18 09:25:58;;;;;;;;;;;;;;;13.62;35.22;98665.44;1796963;79;20160;-74
2021/03/18 09:28:37;;;;;;;;;;;;;;;14.31;33.67;98664.66;1766215;79;20424;-75
2021/03/18 09:31:05;;;;;;;;;;;;;;;14.80;32.43;98663.36;1802682;79;20142;-75
2021/03/18 09:33:41;;;;;;;;;;;;;;;15.00;31.92;98670.05;1805019;78;20189;-76
2021/03/18 09:36:20;;;;;;;;;;;;;;;15.03;31.55;98666.98;1778893;80;20434;-75
2021/03/18 09:39:07;;;;;;;;;;;;;;;14.82;31.44;98667.97;1792675;79;20386;-74
2021/03/18 09:41:38;;;;;;;;;;;;;;;14.53;31.99;98664.05;1791031;79;20179;-74
2021/03/18 09:44:13;;;;;;;;;;;;;;;14.26;31.92;98664.41;1778246;79;20160;-70
2021/03/18 09:46:47;;;;;;;;;;;;;;;13.94;31.74;98674.66;1806824;79;20450;-69
2021/03/18 09:49:15;;;;;;;;;;;;;;;13.60;32.25;98674.11;1776322;79;20154;-70
2021/03/18 09:51:44;;;;;;;;;;;;;;;13.27;32.75;98674.59;1815722;78;20278;-75
2021/03/18 09:54:12;;;;;;;;;;;;;;;13.05;33.06;98671.09;1816218;78;20149;-81
2021/03/18 09:56:42;;;;;;;;;;;;;;;12.86;32.99;98664.58;1812178;78;20137;-72
2021/03/18 09:59:13;;;;;;;;;;;;;;;12.67;33.43;98669.98;1781277;78;20159;-75
2021/03/18 10:01:42;;;;;;;;;;;;;;;12.53;33.71;98666.84;1781298;79;20186;-81
2021/03/18 10:04:18;;;;;;;;;;;;;;;12.42;34.03;98678.25;1797043;78;20131;-74
2021/03/18 10:06:53;;;;;;;;;;;;;;;12.32;34.27;98682.18;1760174;79;20169;-68
2021/03/18 10:09:26;;;;;;;;;;;;;;;12.22;34.48;98678.48;1774756;79;20504;-72
2021/03/18 10:12:05;;;;;;;;;;;;;;;12.14;34.61;98678.08;1787043;79;20238;-79
2021/03/18 10:14:36;;;;;;;;;;;;;;;12.09;35.73;98683.09;1783791;79;20192;-71
2021/03/18 10:17:41;;;;;;;;;;;;;;;11.95;37.38;98671.97;1904431;74;20230;-74
2021/03/18 10:20:25;;;;;;;;;;;;;;;11.58;38.15;98673.64;1855666;76;20229;-80
2021/03/18 10:23:10;;;;;;;;;;;;;;;11.39;38.95;98681.06;1854026;77;20468;-78
2021/03/18 10:25:39;;;;;;;;;;;;;;;11.18;39.66;98680.38;1867444;76;20133;-81
2021/03/18 10:28:10;;;;;;;;;;;;;;;10.94;40.23;98673.45;1861376;76;20126;-79
2021/03/18 10:30:47;;;;;;;;;;;;;;;10.66;40.64;98675.73;1861069;77;20166;-78
2021/03/18 10:33:18;;;;;;;;;;;;;;;10.28;41.31;98681.63;1842754;77;20273;-78
2021/03/18 10:35:57;;;;;;;;;;;;;;;10.03;41.97;98678.76;1833928;77;20131;-78
2021/03/18 10:38:28;;;;;;;;;;;;;;;9.79;42.32;98686.23;1832907;77;20331;-78
2021/03/18 10:40:57;;;;;;;;;;;;;;;9.40;43.05;98684.27;1831930;77;20155;-82
2021/03/18 10:43:30;;;;;;;;;;;;;;;9.09;43.84;98691.48;1832030;77;20143;-78
2021/03/18 10:46:04;;;;;;;;;;;;;;;8.91;44.24;98694.27;1804689;77;20194;-79
2021/03/18 10:48:36;;;;;;;;;;;;;;;8.77;44.76;98698.83;1831390;78;20226;-79
2021/03/18 10:51:10;;;;;;;;;;;;;;;8.67;45.17;98698.47;1805059;78;20424;-79
2021/03/18 10:53:39;;;;;;;;;;;;;;;8.58;45.36;98696.79;1803895;78;20171;-76
2021/03/18 10:56:11;;;;;;;;;;;;;;;8.45;45.17;98704.31;1832426;78;20155;-77
2021/03/18 10:58:40;;;;;;;;;;;;;;;8.29;45.60;98704.55;1831937;78;20131;-78
2021/03/18 11:01:10;;;;;;;;;;;;;;;8.20;45.71;98697.59;1805974;78;20596;-78
2021/03/18 11:03:40;;;;;;;;;;;;;;;8.12;45.77;98704.95;1832750;78;20197;-74
2021/03/18 11:06:22;;;;;;;;;;;;;;;8.05;45.91;98703.11;1831922;77;20174;-82
2021/03/18 11:08:54;;;;;;;;;;;;;;;7.98;46.03;98701.07;1832076;77;20246;-78
2021/03/18 11:11:30;;;;;;;;;;;;;;;7.89;46.17;98700.72;1831577;77;20449;-77
2021/03/18 11:14:09;;;;;;;;;;;;;;;7.76;46.39;98700.27;1841849;77;20240;-75
2021/03/18 11:16:37;;;;;;;;;;;;;;;7.63;46.94;98696.75;1865010;77;20427;-77
2021/03/18 11:19:06;;;;;;;;;;;;;;;7.53;47.44;98692.88;1846269;77;20156;-80
2021/03/18 11:21:36;;;;;;;;;;;;;;;7.44;47.58;98699.54;1794502;77;20433;-76
2021/03/18 11:24:18;;;;;;;;;;;;;;;7.32;47.99;98688.44;1862510;77;20516;-77
2021/03/18 11:27:02;;;;;;;;;;;;;;;7.26;48.28;98691.68;1826506;77;20224;-78
2021/03/18 11:29:31;;;;;;;;;;;;;;;7.21;48.13;98687.35;1843568;77;20137;-78
2021/03/18 11:32:01;;;;;;;;;;;;;;;7.18;48.20;98690.63;1849270;77;20237;-76
2021/03/18 11:34:34;;;;;;;;;;;;;;;7.19;48.00;98689.63;1854874;77;20229;-77
2021/03/18 11:37:04;;;;;;;;;;;;;;;7.23;48.06;98685.39;1839207;77;20126;-77
2021/03/18 11:39:33;;;;;;;;;;;;;;;7.26;47.84;98685.11;1832739;78;20143;-78
2021/03/18 11:42:02;;;;;;;;;;;;;;;7.24;48.04;98690.98;1806861;78;20156;-78
2021/03/18 11:44:31;;;;;;;;;;;;;;;7.26;48.18;98690.36;1833817;77;20130;-76
2021/03/18 11:47:05;;;;;;;;;;;;;;;7.29;48.38;98688.73;1833941;78;20230;-75
2021/03/18 11:49:33;;;;;;;;;;;;;;;7.31;48.33;98688.09;1806059;78;20286;-81
2021/03/18 11:52:01;;;;;;;;;;;;;;;7.32;48.44;98694.52;1830183;78;20492;-80
2021/03/18 11:54:28;;;;;;;;;;;;;;;7.33;48.79;98691.39;1837830;77;20226;-74
2021/03/18 11:56:56;;;;;;;;;;;;;;;7.30;48.93;98694.34;1850842;77;20238;-75
2021/03/18 11:59:29;;;;;;;;;;;;;;;7.26;48.98;98693.81;1854791;77;20218;-76
2021/03/18 12:01:57;;;;;;;;;;;;;;;7.17;49.16;98690.27;1826322;77;20222;-74
2021/03/18 12:04:26;;;;;;;;;;;;;;;7.08;49.28;98695.61;1845765;77;20143;-74
2021/03/18 12:06:55;;;;;;;;;;;;;;;7.01;49.43;98690.11;1808338;78;20266;-75
2021/03/18 12:09:23;;;;;;;;;;;;;;;6.97;49.78;98694.02;1852862;77;20190;-77
2021/03/18 12:11:50;;;;;;;;;;;;;;;6.87;50.23;98695.41;1850078;77;20514;-74
2021/03/18 12:14:17;;;;;;;;;;;;;;;6.81;50.63;98696.01;1833599;77;20580;-72
2021/03/18 12:16:45;;;;;;;;;;;;;;;6.74;50.93;98697.56;1822551;77;20531;-73
2021/03/18 12:19:13;;;;;;;;;;;;;;;6.71;51.40;98695.22;1841612;77;20182;-72
2021/03/18 12:21:43;;;;;;;;;;;;;;;6.69;51.67;98699.30;1783089;79;20119;-74
2021/03/18 12:24:12;;;;;;;;;;;;;;;6.69;51.76;98701.11;1749721;80;20238;-77
2021/03/18 12:26:40;;;;;;;;;;;;;;;6.69;51.69;98703.73;1761951;80;20286;-74
2021/03/18 12:29:08;;;;;;;;;;;;;;;6.71;51.74;98704.42;1747901;81;20173;-71
2021/03/18 12:31:35;;;;;;;;;;;;;;;6.76;51.57;98699.06;1769961;80;20144;-72
2021/03/18 12:34:04;;;;;;;;;;;;;;;6.81;51.46;98699.95;1796226;78;20495;-72
2021/03/18 12:36:35;;;;;;;;;;;;;;;6.84;51.53;98704.07;1793653;79;20224;-71
2021/03/18 12:39:05;;;;;;;;;;;;;;;6.85;52.09;98696.54;1778403;79;20208;-75
2021/03/18 12:41:33;;;;;;;;;;;;;;;6.83;52.64;98701.09;1758492;79;20219;-73
2021/03/18 12:44:01;;;;;;;;;;;;;;;6.80;53.11;98703.53;1730377;81;20160;-73
2021/03/18 12:46:28;;;;;;;;;;;;;;;6.74;53.36;98701.50;1771827;80;20813;-73
2021/03/18 12:48:56;;;;;;;;;;;;;;;6.66;53.25;98707.97;1744920;81;21133;-72
2021/03/18 12:51:24;;;;;;;;;;;;;;;6.55;53.15;98703.76;1790418;78;20195;-70
2021/03/18 12:53:52;;;;;;;;;;;;;;;6.39;53.48;98709.12;1777854;80;20954;-74
2021/03/18 12:56:20;;;;;;;;;;;;;;;6.30;53.69;98716.56;1796838;79;20193;-77
2021/03/18 12:58:48;;;;;;;;;;;;;;;6.25;54.37;98714.02;1797591;79;20188;-74
2021/03/18 13:01:16;;;;;;;;;;;;;;;6.21;54.93;98713.02;1801948;79;20252;-79
2021/03/18 13:03:44;;;;;;;;;;;;;;;6.15;55.15;98706.19;1800636;78;20189;-76
2021/03/18 13:06:12;;;;;;;;;;;;;;;6.11;55.71;98707.45;1790173;80;20524;-75
2021/03/18 13:08:39;;;;;;;;;;;;;;;6.07;56.15;98712.16;1766126;80;20341;-73
2021/03/18 13:11:07;;;;;;;;;;;;;;;6.09;56.37;98709.39;1795143;79;20471;-78
2021/03/18 13:13:36;;;;;;;;;;;;;;;6.09;56.44;98706.77;1796042;78;20141;-74
2021/03/18 13:16:04;;;;;;;;;;;;;;;6.03;56.51;98706.86;1779576;78;20155;-76